Time;durP1;ratioP1;P1;durP2;ratioP2;P2;SDS_P1;SDS_P2;PMS_P1;PMS_P2;Temp;Humidity;BMP_temperature;BMP_pressure;BME280_temperature;BME280_humidity;BME280_pressure;Samples;Min_cycle;Max_cycle;Signal;HPM_P1;HPM_P2
2022/10/17 00:02:24;;;;;;;1.00;0.70;;;15.50;99.90;;;;;;5033745;28;20445;-73
2022/10/17 00:04:51;;;;;;;2.57;1.53;;;15.60;99.90;;;;;;5036379;28;20876;-73
2022/10/17 00:07:18;;;;;;;0.87;0.60;;;15.50;99.90;;;;;;5033992;28;20441;-73
2022/10/17 00:09:47;;;;;;;1.00;0.63;;;15.50;99.90;;;;;;5036609;28;20490;-73
2022/10/17 00:12:14;;;;;;;0.77;0.57;;;15.50;99.90;;;;;;5034036;28;20448;-74
2022/10/17 00:14:40;;;;;;;1.40;0.60;;;15.50;99.90;;;;;;5036573;28;20476;-73
2022/10/17 00:17:07;;;;;;;0.80;0.50;;;15.50;99.90;;;;;;5036338;28;20452;-73
2022/10/17 00:19:34;;;;;;;0.97;0.60;;;15.50;99.90;;;;;;5034728;28;20569;-73
2022/10/17 00:22:01;;;;;;;1.03;0.60;;;15.40;99.90;;;;;;5036641;28;20516;-73
2022/10/17 00:24:30;;;;;;;1.10;0.60;;;15.40;99.90;;;;;;5034766;28;20514;-73
2022/10/17 00:26:58;;;;;;;1.10;0.50;;;15.40;99.90;;;;;;5036141;28;20733;-73
2022/10/17 00:29:26;;;;;;;0.80;0.60;;;15.30;99.90;;;;;;5034284;28;20452;-73
2022/10/17 00:31:55;;;;;;;0.77;0.50;;;15.20;99.90;;;;;;5036033;28;20452;-73
2022/10/17 00:34:22;;;;;;;1.20;0.50;;;15.20;99.90;;;;;;5033635;28;20483;-73
2022/10/17 00:36:49;;;;;;;0.90;0.60;;;15.20;99.90;;;;;;5035701;28;20892;-73
2022/10/17 00:39:16;;;;;;;0.63;0.50;;;15.30;99.90;;;;;;5032487;28;20492;-73
2022/10/17 00:41:43;;;;;;;0.93;0.60;;;15.30;99.90;;;;;;5035786;28;20950;-73
2022/10/17 00:44:45;;;;;;;1.03;0.60;;;15.20;99.90;;;;;;5032779;28;20520;-73
2022/10/17 00:47:19;;;;;;;0.73;0.47;;;15.10;99.90;;;;;;5033175;28;20754;-73
2022/10/17 00:49:47;;;;;;;0.77;0.60;;;15.10;99.90;;;;;;5035792;28;20486;-73
2022/10/17 00:52:17;;;;;;;1.53;0.63;;;15.10;99.90;;;;;;5032577;28;20502;-73
2022/10/17 00:54:48;;;;;;;0.80;0.60;;;15.20;99.90;;;;;;5036040;28;20502;-73
2022/10/17 00:57:16;;;;;;;0.73;0.50;;;15.20;99.90;;;;;;5033348;28;20452;-73
2022/10/17 00:59:48;;;;;;;0.70;0.40;;;15.10;99.90;;;;;;5036221;28;20488;-73
2022/10/17 01:02:18;;;;;;;1.43;0.60;;;15.10;99.90;;;;;;5034017;28;20456;-73
2022/10/17 01:04:48;;;;;;;0.70;0.50;;;15.20;99.90;;;;;;5041624;28;20499;-73
2022/10/17 01:07:15;;;;;;;1.70;0.50;;;15.20;99.90;;;;;;5040176;28;20895;-73
2022/10/17 01:09:45;;;;;;;0.90;0.60;;;15.10;99.90;;;;;;5042481;28;20444;-73
2022/10/17 01:12:18;;;;;;;0.80;0.53;;;15.10;99.90;;;;;;5042582;28;20505;-73
2022/10/17 01:14:58;;;;;;;3.83;0.60;;;15.00;99.90;;;;;;5042151;28;20562;-73
2022/10/17 01:17:32;;;;;;;2.63;0.50;;;15.00;99.90;;;;;;5039497;28;20452;-73
2022/10/17 01:20:50;;;;;;;1.33;0.50;;;15.00;99.90;;;;;;5042160;28;20479;-73
2022/10/17 01:23:53;;;;;;;1.70;0.57;;;15.00;99.90;;;;;;4954683;29;20452;-73
2022/10/17 01:26:27;;;;;;;0.87;0.50;;;15.10;99.90;;;;;;4945584;28;20459;-73
2022/10/17 01:29:16;;;;;;;0.70;0.50;;;15.00;99.90;;;;;;5027617;28;20502;-73
2022/10/17 01:31:47;;;;;;;0.80;0.40;;;15.00;99.90;;;;;;5042235;28;20459;-73
2022/10/17 01:34:19;;;;;;;2.73;0.60;;;14.90;99.90;;;;;;5039382;28;20899;-73
2022/10/17 01:36:51;;;;;;;0.80;0.50;;;14.90;99.90;;;;;;5041567;28;20550;-73
2022/10/17 01:39:26;;;;;;;0.93;0.50;;;14.90;99.90;;;;;;5039519;28;20594;-73
2022/10/17 01:42:00;;;;;;;0.90;0.53;;;14.80;99.90;;;;;;5041582;28;20887;-73
2022/10/17 01:44:35;;;;;;;0.87;0.53;;;14.80;99.90;;;;;;5039057;28;20519;-73
2022/10/17 01:47:06;;;;;;;2.33;0.50;;;14.80;99.90;;;;;;5042061;28;20451;-73
2022/10/17 01:49:35;;;;;;;0.60;0.50;;;14.80;99.90;;;;;;5039838;28;20506;-73
2022/10/17 01:52:06;;;;;;;0.67;0.43;;;14.80;99.90;;;;;;5042346;28;20518;-73
2022/10/17 01:54:40;;;;;;;0.80;0.50;;;14.80;99.90;;;;;;5039820;28;20460;-73
2022/10/17 01:57:11;;;;;;;2.37;0.60;;;14.80;99.90;;;;;;5042941;28;20448;-73
2022/10/17 01:59:42;;;;;;;1.20;0.60;;;14.70;99.90;;;;;;5042186;28;20484;-73
2022/10/17 02:02:11;;;;;;;1.17;0.63;;;14.80;99.90;;;;;;5042213;28;20501;-73
2022/10/17 02:04:40;;;;;;;0.97;0.50;;;14.80;99.90;;;;;;5041982;28;20498;-73
2022/10/17 02:07:08;;;;;;;0.90;0.57;;;14.70;99.90;;;;;;5042404;28;20452;-72
2022/10/17 02:09:35;;;;;;;2.03;0.60;;;14.80;99.90;;;;;;5038986;28;20462;-73
2022/10/17 02:12:27;;;;;;;3.03;0.50;;;14.70;99.90;;;;;;5042177;28;20452;-73
2022/10/17 02:15:15;;;;;;;0.67;0.50;;;14.70;99.90;;;;;;5040411;28;20480;-73
2022/10/17 02:17:56;;;;;;;1.30;0.50;;;14.70;99.90;;;;;;5036491;28;20912;-73
2022/10/17 02:20:29;;;;;;;3.13;0.50;;;14.70;99.90;;;;;;5039382;28;20539;-74
2022/10/17 02:23:02;;;;;;;1.43;0.50;;;14.70;99.90;;;;;;5036277;28;20460;-72
2022/10/17 02:25:40;;;;;;;0.80;0.40;;;14.60;99.90;;;;;;5038705;28;20448;-73
2022/10/17 02:28:19;;;;;;;0.80;0.50;;;14.60;99.90;;;;;;5035940;28;20748;-73
2022/10/17 02:30:52;;;;;;;0.70;0.47;;;14.70;99.90;;;;;;5038839;28;20452;-73
2022/10/17 02:33:26;;;;;;;0.97;0.57;;;14.60;99.90;;;;;;5035686;28;20460;-73
2022/10/17 02:35:57;;;;;;;6.33;0.67;;;14.60;99.90;;;;;;5038434;28;20883;-73
2022/10/17 02:38:27;;;;;;;1.00;0.60;;;14.50;99.90;;;;;;5035137;28;20456;-73
2022/10/17 02:40:55;;;;;;;1.00;0.50;;;14.50;99.90;;;;;;5038027;28;20480;-73
2022/10/17 02:43:23;;;;;;;0.80;0.57;;;14.50;99.90;;;;;;5035326;28;20464;-73
2022/10/17 02:45:51;;;;;;;1.40;0.60;;;14.60;99.90;;;;;;5038707;28;20448;-73
2022/10/17 02:48:25;;;;;;;1.70;0.50;;;14.60;99.90;;;;;;5036294;28;20888;-73
2022/10/17 02:51:02;;;;;;;0.60;0.40;;;14.60;99.90;;;;;;5038878;28;20459;-72
2022/10/17 02:53:36;;;;;;;1.00;0.60;;;14.60;99.90;;;;;;5035243;28;20954;-73
2022/10/17 02:56:08;;;;;;;0.60;0.50;;;14.60;99.90;;;;;;5037923;28;20444;-73
2022/10/17 02:58:37;;;;;;;2.70;0.53;;;14.60;99.90;;;;;;5035457;28;20930;-72
2022/10/17 03:01:05;;;;;;;1.27;0.77;;;14.50;99.90;;;;;;5037912;28;20472;-73
2022/10/17 03:03:34;;;;;;;0.73;0.57;;;14.50;99.90;;;;;;5036256;28;20460;-73
2022/10/17 03:06:01;;;;;;;0.90;0.53;;;14.50;99.90;;;;;;5038175;28;20449;-72
2022/10/17 03:08:28;;;;;;;4.37;0.60;;;14.40;99.90;;;;;;5036624;28;20452;-73
2022/10/17 03:10:55;;;;;;;1.93;0.53;;;14.40;99.90;;;;;;5039182;28;20514;-73
2022/10/17 03:13:25;;;;;;;1.47;0.50;;;14.40;99.90;;;;;;5035822;28;20480;-73
2022/10/17 03:15:52;;;;;;;2.90;0.50;;;14.40;99.90;;;;;;5038474;28;20448;-73
2022/10/17 03:18:19;;;;;;;1.07;0.50;;;14.40;99.90;;;;;;5035767;28;20503;-73
2022/10/17 03:20:47;;;;;;;0.77;0.50;;;14.40;99.90;;;;;;5038460;28;20569;-73
2022/10/17 03:23:14;;;;;;;1.00;0.50;;;14.40;99.90;;;;;;5036141;28;20533;-73
2022/10/17 03:25:42;;;;;;;0.90;0.50;;;14.40;99.90;;;;;;5038565;28;20452;-73
2022/10/17 03:28:10;;;;;;;2.63;0.50;;;14.40;99.90;;;;;;5038198;28;20461;-73
2022/10/17 03:30:38;;;;;;;2.30;0.70;;;14.40;99.90;;;;;;5036093;28;20461;-73
2022/10/17 03:33:05;;;;;;;0.70;0.40;;;14.40;99.90;;;;;;5038404;28;20872;-73
2022/10/17 03:35:32;;;;;;;1.20;0.60;;;14.40;99.90;;;;;;5035150;28;20483;-73
2022/10/17 03:38:01;;;;;;;1.00;0.60;;;14.40;99.90;;;;;;5038057;28;20449;-74
2022/10/17 03:40:28;;;;;;;1.63;0.57;;;14.40;99.90;;;;;;5035457;28;20963;-74
2022/10/17 03:42:55;;;;;;;0.90;0.50;;;14.50;99.90;;;;;;5037801;28;20452;-73
2022/10/17 03:45:22;;;;;;;1.00;0.60;;;14.50;99.90;;;;;;5035416;28;20811;-73
2022/10/17 03:47:48;;;;;;;0.60;0.50;;;14.40;99.90;;;;;;5038221;28;20506;-73
2022/10/17 03:50:15;;;;;;;3.13;0.50;;;14.40;99.90;;;;;;5035762;28;20456;-73
2022/10/17 03:52:46;;;;;;;0.90;0.57;;;14.40;99.90;;;;;;5037654;28;20494;-73
2022/10/17 03:55:14;;;;;;;0.90;0.50;;;14.40;99.90;;;;;;5034432;28;20460;-73
2022/10/17 03:57:41;;;;;;;1.10;0.60;;;14.50;99.90;;;;;;5037372;28;20454;-73
2022/10/17 04:00:09;;;;;;;1.33;0.60;;;14.40;99.90;;;;;;5034277;28;20568;-73
2022/10/17 04:02:36;;;;;;;2.50;0.70;;;14.40;99.90;;;;;;5036017;28;20448;-73
2022/10/17 04:05:04;;;;;;;0.93;0.60;;;14.40;99.90;;;;;;5033697;28;20519;-73
2022/10/17 04:07:31;;;;;;;1.00;0.70;;;14.40;99.90;;;;;;5036694;28;20452;-74
2022/10/17 04:09:58;;;;;;;0.80;0.60;;;14.30;99.90;;;;;;5034162;28;20804;-75
2022/10/17 04:12:26;;;;;;;0.83;0.50;;;14.40;99.90;;;;;;5037292;28;20444;-74
2022/10/17 04:14:53;;;;;;;0.97;0.63;;;14.40;99.90;;;;;;5033822;28;20476;-75
2022/10/17 04:17:20;;;;;;;1.90;1.73;;;14.40;99.90;;;;;;5036723;28;20762;-74
2022/10/17 04:19:49;;;;;;;0.90;0.60;;;14.40;99.90;;;;;;5034139;28;20494;-75
2022/10/17 04:22:16;;;;;;;1.20;0.73;;;14.30;99.90;;;;;;5037128;28;20437;-75
2022/10/17 04:24:43;;;;;;;1.13;0.60;;;14.30;99.90;;;;;;5035487;28;20460;-75
2022/10/17 04:27:10;;;;;;;1.03;0.60;;;14.30;99.90;;;;;;5036604;28;20452;-75
2022/10/17 04:29:38;;;;;;;1.17;0.80;;;14.30;99.90;;;;;;5035228;28;20456;-75
2022/10/17 04:32:05;;;;;;;0.77;0.50;;;14.20;99.90;;;;;;5037476;28;20510;-75
2022/10/17 04:34:32;;;;;;;1.10;0.60;;;14.30;99.90;;;;;;5034646;28;20460;-74
2022/10/17 04:36:59;;;;;;;0.70;0.43;;;14.30;99.90;;;;;;5037109;28;20456;-74
2022/10/17 04:39:27;;;;;;;0.87;0.53;;;14.30;99.90;;;;;;5031928;28;20888;-74
2022/10/17 04:41:55;;;;;;;0.90;0.60;;;14.40;99.90;;;;;;5035382;28;20485;-74
2022/10/17 04:44:22;;;;;;;1.97;0.57;;;14.40;99.90;;;;;;5032503;28;20471;-74
2022/10/17 04:46:51;;;;;;;0.70;0.50;;;14.40;99.90;;;;;;5035727;28;20486;-74
2022/10/17 04:49:18;;;;;;;1.63;0.50;;;14.30;99.90;;;;;;5033202;28;20876;-74
2022/10/17 04:51:45;;;;;;;3.27;0.50;;;14.30;99.90;;;;;;5036430;28;20506;-74
2022/10/17 04:54:12;;;;;;;1.10;0.40;;;14.30;99.90;;;;;;5032424;28;20449;-74
2022/10/17 04:56:39;;;;;;;0.80;0.60;;;14.30;99.90;;;;;;5035053;28;20484;-75
2022/10/17 04:59:06;;;;;;;0.60;0.40;;;14.30;99.90;;;;;;5034814;28;20513;-75
2022/10/17 05:01:32;;;;;;;0.97;0.50;;;14.20;99.90;;;;;;5032886;28;20488;-75
2022/10/17 05:04:01;;;;;;;1.07;0.40;;;14.30;99.90;;;;;;5035901;28;20452;-75
2022/10/17 05:06:28;;;;;;;1.00;0.60;;;14.30;99.90;;;;;;5032974;28;20448;-75
2022/10/17 05:08:56;;;;;;;0.87;0.60;;;14.40;99.90;;;;;;5036121;28;20519;-75
2022/10/17 05:11:24;;;;;;;0.90;0.70;;;14.40;99.90;;;;;;5031552;28;20452;-75
2022/10/17 05:13:53;;;;;;;0.77;0.53;;;14.40;99.90;;;;;;5034344;28;20476;-75
2022/10/17 05:16:21;;;;;;;1.90;0.70;;;14.40;99.90;;;;;;5032327;28;20460;-75
2022/10/17 05:18:49;;;;;;;1.00;0.60;;;14.40;99.90;;;;;;5034049;28;20510;-76
2022/10/17 05:21:19;;;;;;;1.20;0.67;;;14.50;99.90;;;;;;5032256;28;20488;-75
2022/10/17 05:23:46;;;;;;;1.83;0.70;;;14.50;99.90;;;;;;5036023;28;20448;-75
2022/10/17 05:26:13;;;;;;;1.00;0.70;;;14.50;99.90;;;;;;5033926;28;20884;-75
2022/10/17 05:28:41;;;;;;;1.00;0.70;;;14.40;99.90;;;;;;5033858;28;20456;-75
2022/10/17 05:31:09;;;;;;;1.10;0.80;;;14.40;99.90;;;;;;5032332;28;20456;-75
2022/10/17 05:33:38;;;;;;;1.47;0.70;;;14.40;99.90;;;;;;5035311;28;20941;-75
2022/10/17 05:36:06;;;;;;;1.30;0.60;;;14.50;99.90;;;;;;5035183;28;20677;-75
2022/10/17 05:38:34;;;;;;;2.67;0.80;;;14.50;99.90;;;;;;5035028;28;20514;-74
2022/10/17 05:41:02;;;;;;;1.33;0.70;;;14.50;99.90;;;;;;5031409;28;20488;-75
2022/10/17 05:43:31;;;;;;;1.30;0.70;;;14.50;99.90;;;;;;5032676;28;20510;-75
2022/10/17 05:45:58;;;;;;;2.00;0.63;;;14.50;99.90;;;;;;5033702;28;20529;-75
2022/10/17 05:48:25;;;;;;;3.23;0.60;;;14.50;99.90;;;;;;5032297;28;20707;-75
2022/10/17 05:50:58;;;;;;;1.50;0.80;;;14.40;99.90;;;;;;5037065;28;20440;-75
2022/10/17 05:53:25;;;;;;;0.70;0.60;;;14.40;99.90;;;;;;5035527;28;20456;-75
2022/10/17 05:55:58;;;;;;;1.60;0.70;;;14.40;99.90;;;;;;5038217;28;20475;-75
2022/10/17 05:58:25;;;;;;;1.93;0.63;;;14.40;99.90;;;;;;5035728;28;21092;-75
2022/10/17 06:00:52;;;;;;;1.00;0.70;;;14.40;99.90;;;;;;5037530;28;20515;-75
2022/10/17 06:03:19;;;;;;;27.97;21.63;;;14.40;99.90;;;;;;5036362;28;20519;-75
2022/10/17 06:05:46;;;;;;;11.10;9.23;;;14.40;99.90;;;;;;5039519;28;20452;-75
2022/10/17 06:08:13;;;;;;;11.70;8.93;;;14.40;99.90;;;;;;5036094;28;20463;-76
2022/10/17 06:10:40;;;;;;;9.30;2.60;;;14.40;99.90;;;;;;5040739;28;20518;-76
2022/10/17 06:13:08;;;;;;;2.40;1.10;;;14.40;99.90;;;;;;5037291;28;20495;-76
2022/10/17 06:15:35;;;;;;;1.50;0.73;;;14.40;99.90;;;;;;5042169;28;20452;-76
2022/10/17 06:18:02;;;;;;;2.33;0.90;;;14.50;99.90;;;;;;5039439;28;20452;-76
2022/10/17 06:20:29;;;;;;;1.20;0.80;;;14.50;99.90;;;;;;5040925;28;20529;-75
2022/10/17 06:22:56;;;;;;;1.53;0.77;;;14.50;99.90;;;;;;5036808;28;20456;-76
2022/10/17 06:25:23;;;;;;;1.30;0.73;;;14.30;99.90;;;;;;5042140;28;20445;-76
2022/10/17 06:27:50;;;;;;;5.40;0.70;;;14.20;99.90;;;;;;5037701;28;20490;-76
2022/10/17 06:30:19;;;;;;;2.07;0.70;;;14.30;99.90;;;;;;5052822;28;20445;-76
2022/10/17 06:32:46;;;;;;;1.10;0.80;;;14.40;99.90;;;;;;5038083;28;20514;-76
2022/10/17 06:35:13;;;;;;;1.17;0.73;;;14.50;99.90;;;;;;5041752;28;20433;-78
2022/10/17 06:37:39;;;;;;;1.63;0.80;;;14.40;99.90;;;;;;5038174;28;20452;-78
2022/10/17 06:40:09;;;;;;;2.10;0.80;;;14.40;99.90;;;;;;5043873;28;20528;-77
2022/10/17 06:42:36;;;;;;;1.73;0.90;;;14.40;99.90;;;;;;5043622;28;20483;-78
2022/10/17 06:45:03;;;;;;;2.70;0.70;;;14.50;99.90;;;;;;5047058;28;20510;-78
2022/10/17 06:47:31;;;;;;;1.80;0.73;;;14.60;99.90;;;;;;5044565;28;20954;-78
2022/10/17 06:49:58;;;;;;;1.10;0.70;;;14.60;99.90;;;;;;5034509;28;20437;-77
2022/10/17 06:52:26;;;;;;;2.47;0.80;;;14.70;99.90;;;;;;5022341;28;20457;-76
2022/10/17 06:54:53;;;;;;;1.07;0.70;;;14.80;99.90;;;;;;5038974;28;20967;-75
2022/10/17 06:57:19;;;;;;;1.90;0.70;;;14.70;99.90;;;;;;5035833;28;20444;-76
2022/10/17 06:59:47;;;;;;;1.97;0.63;;;14.80;99.90;;;;;;5037894;28;20445;-76
2022/10/17 07:02:14;;;;;;;1.00;0.60;;;14.90;99.90;;;;;;5037488;28;20550;-77
2022/10/17 07:04:42;;;;;;;1.13;0.70;;;14.80;99.90;;;;;;5033568;28;20469;-76
2022/10/17 07:07:09;;;;;;;1.40;0.60;;;14.90;99.90;;;;;;5033398;28;20460;-76
2022/10/17 07:09:36;;;;;;;1.47;0.50;;;15.00;99.90;;;;;;5037072;28;20460;-75
2022/10/17 07:12:06;;;;;;;0.80;0.53;;;15.10;99.90;;;;;;5034137;28;20492;-75
2022/10/17 07:14:34;;;;;;;1.43;1.00;;;15.20;99.90;;;;;;5038617;28;20488;-75
2022/10/17 07:17:01;;;;;;;2.33;1.00;;;15.30;99.90;;;;;;5034792;28;20460;-75
2022/10/17 07:19:28;;;;;;;1.87;0.73;;;15.40;99.90;;;;;;5038386;28;20445;-76
2022/10/17 07:21:56;;;;;;;1.00;0.67;;;15.50;99.90;;;;;;5034146;28;20483;-76
2022/10/17 07:24:23;;;;;;;1.10;0.63;;;15.70;99.90;;;;;;5039081;28;20436;-77
2022/10/17 07:26:50;;;;;;;1.43;0.80;;;15.70;99.90;;;;;;5035487;28;20522;-76
2022/10/17 07:29:17;;;;;;;0.90;0.60;;;15.90;99.90;;;;;;5038807;28;20498;-76
2022/10/17 07:31:47;;;;;;;1.87;0.80;;;15.90;99.90;;;;;;5037601;28;20799;-76
2022/10/17 07:34:14;;;;;;;1.27;0.63;;;16.10;99.90;;;;;;5049930;28;20440;-74
2022/10/17 07:36:44;;;;;;;0.93;0.60;;;16.10;99.90;;;;;;5035106;28;20466;-75
2022/10/17 07:39:13;;;;;;;1.87;0.70;;;16.20;99.90;;;;;;5037694;28;20429;-74
2022/10/17 07:41:40;;;;;;;1.10;0.80;;;16.30;99.90;;;;;;5037372;28;20492;-75
2022/10/17 07:44:07;;;;;;;4.23;2.40;;;16.40;99.90;;;;;;5038292;28;20436;-75
2022/10/17 07:46:35;;;;;;;2.33;0.80;;;16.50;99.90;;;;;;5034276;28;20471;-75
2022/10/17 07:49:02;;;;;;;1.30;0.60;;;16.50;99.90;;;;;;5036858;28;20449;-75
2022/10/17 07:51:29;;;;;;;1.10;0.60;;;16.60;99.90;;;;;;5032641;28;20444;-76
2022/10/17 07:53:56;;;;;;;0.80;0.60;;;16.60;99.90;;;;;;5037644;28;20803;-75
2022/10/17 07:56:24;;;;;;;0.87;0.60;;;16.70;97.00;;;;;;5035883;28;20471;-75
2022/10/17 07:58:52;;;;;;;1.53;0.60;;;16.80;89.60;;;;;;5037001;28;20897;-75
2022/10/17 08:01:19;;;;;;;0.70;0.50;;;16.90;81.40;;;;;;5033749;28;20476;-74
2022/10/17 08:03:48;;;;;;;3.00;0.50;;;17.00;68.70;;;;;;5036833;28;20456;-75
2022/10/17 08:06:15;;;;;;;0.67;0.50;;;17.10;63.60;;;;;;5030835;28;20470;-75
2022/10/17 08:08:42;;;;;;;0.60;0.43;;;17.20;59.90;;;;;;5036819;28;20449;-75
2022/10/17 08:11:11;;;;;;;0.90;0.57;;;17.30;56.90;;;;;;5037082;28;20444;-75
2022/10/17 08:13:41;;;;;;;0.80;0.50;;;17.40;50.90;;;;;;5032447;28;20931;-75
2022/10/17 08:16:13;;;;;;;0.77;0.57;;;17.50;42.90;;;;;;5034156;28;20817;-75
2022/10/17 08:18:42;;;;;;;1.03;0.43;;;17.60;34.60;;;;;;5035283;28;20802;-76
2022/10/17 08:21:10;;;;;;;0.67;0.47;;;17.70;18.80;;;;;;5034041;28;20566;-76
2022/10/17 08:23:37;;;;;;;0.70;0.47;;;17.80;24.80;;;;;;5041608;28;20760;-77
2022/10/17 08:26:07;;;;;;;3.43;0.60;;;18.00;12.00;;;;;;5039991;28;20448;-75
2022/10/17 08:28:35;;;;;;;1.80;0.90;;;18.10;3.40;;;;;;5028064;28;20798;-75
2022/10/17 08:31:06;;;;;;;1.70;0.80;;;18.20;1.00;;;;;;5014822;28;20450;-76
2022/10/17 08:33:33;;;;;;;0.60;0.60;;;18.30;1.00;;;;;;5013612;28;20202;-74
2022/10/17 08:36:00;;;;;;;0.60;0.40;;;18.30;1.00;;;;;;5016380;28;20450;-74
2022/10/17 08:38:29;;;;;;;1.73;0.50;;;18.30;1.00;;;;;;5014493;28;20461;-74
2022/10/17 08:41:00;;;;;;;0.63;0.40;;;18.40;1.00;;;;;;5016980;28;20445;-74
2022/10/17 08:43:37;;;;;;;2.50;0.43;;;18.40;1.00;;;;;;5014057;28;20457;-75
2022/10/17 08:46:07;;;;;;;0.80;0.50;;;18.50;1.00;;;;;;5017513;28;20507;-75
2022/10/17 08:48:39;;;;;;;1.70;0.40;;;18.60;1.00;;;;;;5014234;28;20979;-75
2022/10/17 08:51:13;;;;;;;0.70;0.47;;;18.80;1.00;;;;;;5017247;28;20834;-75
2022/10/17 08:53:45;;;;;;;0.77;0.43;;;18.90;1.00;;;;;;5017883;28;20449;-75
2022/10/17 08:56:19;;;;;;;0.50;0.40;;;19.00;1.00;;;;;;5015049;28;20449;-74
2022/10/17 08:58:46;;;;;;;0.60;0.40;;;19.10;1.00;;;;;;5017760;28;20437;-75
2022/10/17 09:01:33;;;;;;;0.60;0.40;;;19.20;1.00;;;;;;5014491;28;20539;-74
2022/10/17 09:04:16;;;;;;;0.73;0.47;;;19.30;1.00;;;;;;5016161;28;20737;-75
2022/10/17 09:06:49;;;;;;;2.00;1.23;;;19.50;1.00;;;;;;5013363;28;20457;-75
2022/10/17 09:09:32;;;;;;;0.60;0.43;;;19.50;1.00;;;;;;5017109;28;20449;-76
2022/10/17 09:12:14;;;;;;;1.10;0.80;;;19.60;1.00;;;;;;5033382;28;20448;-75
2022/10/17 09:15:14;;;;;;;0.97;0.67;;;19.80;1.00;;;;;;5038188;28;21104;-75
2022/10/17 09:17:51;;;;;;;1.10;0.70;;;19.90;1.00;;;;;;5011523;28;20459;-75
2022/10/17 09:20:23;;;;;;;1.10;0.60;;;20.00;1.00;;;;;;5050006;28;20529;-76
2022/10/17 09:22:56;;;;;;;0.90;0.50;;;20.00;1.00;;;;;;5032794;28;20562;-76
2022/10/17 09:25:23;;;;;;;0.70;0.50;;;20.10;1.00;;;;;;5036947;28;20499;-76
2022/10/17 09:27:53;;;;;;;0.67;0.50;;;20.00;1.00;;;;;;5017034;28;20515;-75
2022/10/17 09:30:36;;;;;;;0.57;0.37;;;20.10;1.00;;;;;;5020281;28;20454;-76
2022/10/17 09:33:13;;;;;;;0.80;0.50;;;20.20;1.00;;;;;;5017065;28;20452;-75
2022/10/17 09:35:42;;;;;;;0.70;0.40;;;20.30;1.00;;;;;;5042615;28;20459;-75
2022/10/17 09:38:16;;;;;;;0.60;0.33;;;20.40;1.00;;;;;;5038246;28;20509;-75
2022/10/17 09:40:44;;;;;;;0.83;0.40;;;20.40;1.00;;;;;;5019963;28;20448;-75
2022/10/17 09:43:16;;;;;;;0.73;0.40;;;20.60;1.00;;;;;;5016843;28;20488;-74
2022/10/17 09:45:59;;;;;;;2.10;0.50;;;20.60;1.00;;;;;;5039932;28;20440;-74
2022/10/17 09:48:35;;;;;;;0.60;0.40;;;20.70;1.00;;;;;;5035999;28;20453;-74
2022/10/17 09:51:03;;;;;;;0.87;0.50;;;20.70;99.90;;;;;;5050460;28;20557;-74
2022/10/17 09:53:33;;;;;;;2.30;0.50;;;20.80;99.90;;;;;;5055791;28;20878;-74
2022/10/17 09:56:02;;;;;;;1.47;0.60;;;20.90;99.90;;;;;;5046108;28;20733;-74
2022/10/17 09:58:41;;;;;;;0.70;0.50;;;21.00;99.90;;;;;;5039045;28;20487;-74
2022/10/17 10:01:20;;;;;;;0.87;0.60;;;21.00;84.00;;;;;;5032697;28;20923;-73
2022/10/17 10:04:07;;;;;;;2.30;0.50;;;21.10;99.90;;;;;;5038282;28;20459;-73
2022/10/17 10:06:36;;;;;;;1.17;0.43;;;21.20;1.00;;;;;;5033030;28;20506;-73
2022/10/17 10:09:05;;;;;;;0.90;0.40;;;21.30;1.00;;;;;;5037650;28;20455;-73
2022/10/17 10:11:46;;;;;;;0.50;0.40;;;21.30;99.90;;;;;;5024522;28;20468;-73
2022/10/17 10:14:21;;;;;;;0.87;0.50;;;21.40;99.90;;;;;;5037831;28;20479;-73
2022/10/17 10:16:49;;;;;;;0.67;0.50;;;21.40;1.00;;;;;;5034995;28;20447;-71
2022/10/17 10:19:27;;;;;;;2.70;1.50;;;21.60;1.00;;;;;;5039387;28;20444;-72
2022/10/17 10:21:56;;;;;;;3.37;0.47;;;21.70;99.90;;;;;;5018095;28;20555;-71
2022/10/17 10:24:24;;;;;;;0.60;0.50;;;21.80;1.00;;;;;;5016217;28;20789;-72
2022/10/17 10:26:53;;;;;;;0.80;0.50;;;21.90;99.90;;;;;;5018143;28;20899;-71
2022/10/17 10:29:24;;;;;;;0.50;0.40;;;22.10;1.00;;;;;;5035057;28;20510;-72
2022/10/17 10:31:53;;;;;;;0.57;0.30;;;22.20;1.00;;;;;;5038524;28;20449;-72
2022/10/17 10:34:27;;;;;;;0.70;0.40;;;22.30;1.00;;;;;;5034938;28;20946;-72
2022/10/17 10:37:00;;;;;;;0.67;0.50;;;22.40;1.00;;;;;;5035988;28;20448;-73
2022/10/17 10:39:35;;;;;;;1.27;0.50;;;22.50;1.00;;;;;;5017407;28;20526;-73
2022/10/17 10:42:08;;;;;;;1.67;0.47;;;22.60;1.00;;;;;;5038033;28;20530;-72
2022/10/17 10:44:38;;;;;;;0.80;0.53;;;22.90;99.90;;;;;;5035904;28;20464;-73
2022/10/17 10:47:16;;;;;;;1.83;0.57;;;23.30;17.30;;;;;;5038099;28;20449;-74
2022/10/17 10:49:46;;;;;;;0.60;0.40;;;23.50;1.00;;;;;;5034611;28;20456;-73
2022/10/17 10:52:30;;;;;;;4.53;0.60;;;23.60;1.00;;;;;;5038335;28;20448;-74
2022/10/17 10:55:14;;;;;;;0.60;0.40;;;23.30;1.00;;;;;;5038156;28;20443;-74
2022/10/17 10:57:44;;;;;;;0.70;0.50;;;23.30;1.00;;;;;;5043520;28;20448;-75
2022/10/17 11:00:17;;;;;;;0.80;0.40;;;23.30;1.00;;;;;;5038756;28;20463;-75
2022/10/17 11:02:54;;;;;;;0.60;0.40;;;23.40;1.00;;;;;;5040237;28;20483;-75
2022/10/17 11:05:37;;;;;;;2.40;0.90;;;23.40;1.00;;;;;;5022993;28;20893;-75
2022/10/17 11:08:10;;;;;;;0.70;0.47;;;23.50;1.00;;;;;;5039894;28;20448;-75
2022/10/17 11:10:44;;;;;;;0.77;0.50;;;23.40;1.00;;;;;;5038740;28;20467;-75
2022/10/17 11:13:17;;;;;;;0.70;0.40;;;23.60;99.90;;;;;;5021285;28;20476;-74
2022/10/17 11:15:51;;;;;;;1.10;0.50;;;23.70;99.90;;;;;;5038853;28;21576;-74
2022/10/17 11:18:25;;;;;;;0.70;0.40;;;23.80;1.00;;;;;;5025711;28;20450;-75
2022/10/17 11:20:59;;;;;;;1.77;0.50;;;23.80;99.90;;;;;;5019332;28;20492;-75
2022/10/17 11:23:33;;;;;;;1.43;0.40;;;23.90;99.90;;;;;;5016626;28;20546;-76
2022/10/17 11:26:05;;;;;;;0.70;0.50;;;24.00;99.90;;;;;;5020063;28;20445;-75
2022/10/17 11:28:33;;;;;;;1.83;0.50;;;24.10;99.90;;;;;;5025738;28;20877;-75
2022/10/17 11:31:04;;;;;;;1.63;0.40;;;24.30;99.90;;;;;;5059334;28;20443;-76
2022/10/17 11:33:41;;;;;;;0.50;0.30;;;24.50;1.00;;;;;;5032273;28;20479;-75
2022/10/17 11:36:11;;;;;;;1.17;0.47;;;24.60;6.30;;;;;;5038759;28;20887;-74
2022/10/17 11:38:47;;;;;;;0.73;0.47;;;24.80;1.00;;;;;;5034674;28;20463;-75
2022/10/17 11:41:20;;;;;;;0.70;0.40;;;24.90;5.60;;;;;;5037983;28;20456;-76
2022/10/17 11:43:54;;;;;;;1.17;0.50;;;25.00;1.00;;;;;;5038319;28;20967;-76
2022/10/17 11:46:23;;;;;;;1.73;0.50;;;25.10;1.00;;;;;;5038617;28;20947;-75
2022/10/17 11:49:02;;;;;;;0.87;0.30;;;25.20;1.00;;;;;;5033694;28;20470;-75
2022/10/17 11:51:36;;;;;;;3.07;0.40;;;25.20;1.00;;;;;;5040133;28;20455;-74
2022/10/17 11:54:12;;;;;;;1.10;0.40;;;25.30;1.00;;;;;;5034520;28;20464;-75
2022/10/17 11:56:50;;;;;;;0.70;0.40;;;25.30;1.00;;;;;;5025140;28;20475;-75
2022/10/17 11:59:56;;;;;;;1.57;0.53;;;25.30;1.00;;;;;;5014728;28;20560;-75
2022/10/17 12:02:32;;;;;;;1.10;0.40;;;25.30;1.00;;;;;;5005842;28;20492;-74
2022/10/17 12:05:05;;;;;;;0.90;0.40;;;25.20;1.00;;;;;;5037678;28;20812;-73
2022/10/17 12:07:43;;;;;;;0.60;0.40;;;25.20;1.00;;;;;;5037922;28;20460;-75
2022/10/17 12:10:24;;;;;;;0.93;0.70;;;25.20;1.00;;;;;;5014421;28;20452;-74
2022/10/17 12:12:51;;;;;;;1.23;0.40;;;25.10;1.00;;;;;;5037724;28;20445;-73
2022/10/17 12:15:36;;;;;;;0.97;0.40;;;25.00;1.00;;;;;;5037532;28;20460;-73
2022/10/17 12:18:04;;;;;;;1.20;0.60;;;24.90;1.00;;;;;;5037313;28;21000;-73
2022/10/17 12:20:34;;;;;;;0.80;0.50;;;24.90;1.00;;;;;;5034593;28;20460;-73
2022/10/17 12:23:20;;;;;;;0.70;0.40;;;24.90;1.00;;;;;;5035166;28;20575;-74
2022/10/17 12:25:54;;;;;;;0.97;0.50;;;24.90;1.00;;;;;;5033710;28;20911;-75
2022/10/17 12:28:29;;;;;;;1.10;0.40;;;24.90;1.00;;;;;;5032844;28;20570;-73
2022/10/17 12:30:59;;;;;;;0.63;0.40;;;25.00;1.00;;;;;;5034355;28;20455;-74
2022/10/17 12:33:33;;;;;;;0.77;0.40;;;24.90;1.00;;;;;;5033056;28;20451;-77
2022/10/17 12:36:47;;;;;;;1.07;0.47;;;25.00;1.00;;;;;;5035647;28;20520;-75
2022/10/17 12:39:51;;;;;;;0.70;0.53;;;25.00;1.00;;;;;;5035856;28;20471;-75
2022/10/17 12:42:54;;;;;;;0.93;0.40;;;25.00;1.00;;;;;;5035733;28;20495;-75
2022/10/17 12:45:47;;;;;;;0.80;0.50;;;25.00;1.00;;;;;;5028477;28;20525;-76
2022/10/17 12:48:44;;;;;;;1.53;0.50;;;24.90;1.00;;;;;;5033678;28;20502;-75
2022/10/17 12:51:16;;;;;;;0.70;0.43;;;24.90;1.00;;;;;;5036010;28;20509;-76
2022/10/17 12:53:50;;;;;;;2.00;0.40;;;24.90;1.00;;;;;;5033108;28;20460;-75
2022/10/17 12:56:29;;;;;;;0.70;0.50;;;24.90;1.00;;;;;;5036119;28;20478;-75
2022/10/17 12:59:01;;;;;;;1.10;0.40;;;24.80;1.00;;;;;;5032475;28;20455;-76
2022/10/17 13:01:31;;;;;;;3.07;0.40;;;24.90;1.00;;;;;;5035501;28;20440;-76
2022/10/17 13:04:01;;;;;;;1.00;0.40;;;24.90;1.00;;;;;;5032391;28;20475;-76
2022/10/17 13:06:36;;;;;;;0.50;0.30;;;24.90;1.00;;;;;;5034242;28;20948;-76
2022/10/17 13:09:08;;;;;;;0.70;0.33;;;24.90;1.00;;;;;;5029713;28;20619;-76
2022/10/17 13:11:38;;;;;;;0.70;0.40;;;24.90;1.00;;;;;;5030552;28;20453;-76
2022/10/17 13:14:16;;;;;;;0.50;0.30;;;24.90;1.00;;;;;;5032659;28;20468;-76